»·PEaware :: SWA1946 KLAS-KRNO

SWA1946 :: KLAS-KRNO

FLIGHT INFORMATION

Flight Status: Arrived
Operator:
Southwest Airlines
More flights by this operator :: More flights under this callsign
Pilot: Sean T. (30125)
Aircraft: BOEING 737-700
(B737)
More flights by this aircraft type
Origin: KLAS McCarran Intl
United States
Destination: KRNO Reno/Tahoe Intl
United States
More flights between these airports :: More routes between these airports
Route: SHEAD1 KENNO KENNO2
File this flight plan on PilotEdge
Remarks:
Altitude:
(Current/Filed)
32,000ft
Speed:
(Current/Filed)
290kts
Departed: 02-Nov-20 02:16 PM
Arrived: 02-Nov-20 03:20 PM
Distance/Time
Traveled:
300nm/1:04
Distance/Time
To Go:
Arrived

Flight Plot

Page will automatically refresh every two minutes.

Flight plan parsing failed; only flown route is shown


Map Options




Map Legend


Flown Route
Filed Route
Departure Airport
Arrival Airport
Navaid (VOR, NDB)
Fix

Horizontal Profiles

Position Reports

Time Latitude Longitude Heading Altitude Ground
Speed
02-Nov-20 14:06 36.081389 -115.139806 132 2071ft 0kts
02-Nov-20 14:07 36.081389 -115.139806 132 2071ft 0kts
02-Nov-20 14:08 36.081389 -115.139806 132 2071ft 0kts
02-Nov-20 14:09 36.081389 -115.139806 132 2071ft 0kts
02-Nov-20 14:10 36.081432 -115.139865 132 2071ft 1kts
02-Nov-20 14:11 36.081807 -115.140380 132 2072ft 1kts
02-Nov-20 14:12 36.081709 -115.140681 229 2072ft 7kts
02-Nov-20 14:13 36.080590 -115.141560 183 2078ft 3kts
02-Nov-20 14:14 36.079219 -115.141578 180 2082ft 15kts
02-Nov-20 14:15 36.077563 -115.137843 90 2074ft 24kts
02-Nov-20 14:16 36.077555 -115.129233 90 2048ft 42kts
02-Nov-20 14:17 36.077520 -115.121647 110 2037ft 0kts
02-Nov-20 14:18 36.076617 -115.121231 194 2038ft 8kts
02-Nov-20 14:19 36.076433 -115.150007 269 2654ft 190kts
02-Nov-20 14:19 36.075824 -115.194636 266 4915ft 230kts
02-Nov-20 14:21 36.031000 -115.280391 197 6681ft 272kts
02-Nov-20 14:21 35.978043 -115.300155 199 6763ft 264kts
02-Nov-20 14:23 35.919356 -115.361129 228 9568ft 286kts
02-Nov-20 14:23 35.890634 -115.433399 259 12329ft 323kts
02-Nov-20 14:24 35.888193 -115.538040 269 16066ft 336kts
02-Nov-20 14:26 35.890819 -115.665517 267 20517ft 332kts
02-Nov-20 14:26 35.892357 -115.759059 267 22935ft 344kts
02-Nov-20 14:28 35.894835 -115.895019 269 26401ft 346kts
02-Nov-20 14:28 35.920016 -115.988366 299 28939ft 348kts
02-Nov-20 14:29 35.990109 -116.079710 312 31375ft 350kts
02-Nov-20 14:30 36.068137 -116.169439 312 32258ft 382kts
02-Nov-20 14:31 36.151062 -116.265190 313 32243ft 425kts
02-Nov-20 14:32 36.242648 -116.371269 313 32245ft 463kts
02-Nov-20 14:33 36.339146 -116.483382 313 32243ft 471kts
02-Nov-20 14:34 36.435803 -116.596157 313 32245ft 472kts
02-Nov-20 14:35 36.526871 -116.703243 312 32238ft 471kts
02-Nov-20 14:36 36.628979 -116.797714 325 32243ft 477kts
02-Nov-20 14:37 36.739109 -116.880853 325 32249ft 477kts
02-Nov-20 14:38 36.847950 -116.963802 325 32262ft 472kts
02-Nov-20 14:39 36.946003 -117.038770 326 32348ft 469kts
02-Nov-20 14:40 37.077613 -117.139771 327 32376ft 473kts
02-Nov-20 14:41 37.192871 -117.228532 328 32374ft 474kts
02-Nov-20 14:42 37.308314 -117.321178 320 32377ft 474kts
02-Nov-20 14:43 37.413603 -117.433601 319 32355ft 474kts
02-Nov-20 14:44 37.519128 -117.539900 327 32342ft 474kts
02-Nov-20 14:45 37.634412 -117.630876 328 32369ft 474kts
02-Nov-20 14:46 37.741356 -117.715684 327 32339ft 473kts
02-Nov-20 14:47 37.854736 -117.805964 327 32311ft 474kts
02-Nov-20 14:48 37.965354 -117.894356 327 31712ft 471kts
02-Nov-20 14:49 38.073485 -117.981006 327 30740ft 463kts
02-Nov-20 14:50 38.179504 -118.066269 327 29759ft 456kts
02-Nov-20 14:51 38.285067 -118.151560 327 28745ft 449kts
02-Nov-20 14:52 38.389077 -118.235852 327 27748ft 442kts
02-Nov-20 14:53 38.480154 -118.337038 315 26757ft 435kts
02-Nov-20 14:54 38.564933 -118.441882 315 25770ft 429kts
02-Nov-20 14:55 38.649262 -118.546306 315 24780ft 422kts
02-Nov-20 14:56 38.732221 -118.649438 315 24316ft 418kts
02-Nov-20 14:57 38.811078 -118.747725 314 23995ft 425kts
02-Nov-20 14:58 38.894100 -118.851185 314 22057ft 396kts
02-Nov-20 14:59 38.968956 -118.944857 315 20197ft 374kts
02-Nov-20 15:00 39.040072 -119.034095 315 18368ft 365kts
02-Nov-20 15:01 39.107285 -119.118916 315 16823ft 346kts
02-Nov-20 15:02 39.171554 -119.200065 315 16029ft 326kts
02-Nov-20 15:03 39.229480 -119.273317 315 16026ft 329kts
02-Nov-20 15:04 39.294506 -119.355454 315 14812ft 336kts
02-Nov-20 15:05 39.358360 -119.434528 321 12745ft 311kts
02-Nov-20 15:06 39.424821 -119.496481 324 11674ft 281kts
02-Nov-20 15:07 39.483464 -119.551399 324 10313ft 260kts
02-Nov-20 15:08 39.534993 -119.609751 317 9845ft 256kts
02-Nov-20 15:09 39.581594 -119.665768 317 8799ft 234kts
02-Nov-20 15:10 39.639314 -119.696288 0 8563ft 232kts
02-Nov-20 15:11 39.698354 -119.696119 346 8583ft 212kts
02-Nov-20 15:12 39.733754 -119.749726 270 8387ft 210kts
02-Nov-20 15:13 39.701766 -119.791675 180 8039ft 202kts
02-Nov-20 15:14 39.657033 -119.778510 162 7940ft 162kts
02-Nov-20 15:15 39.619598 -119.768796 173 7004ft 137kts
02-Nov-20 15:16 39.585785 -119.768875 179 6251ft 141kts
02-Nov-20 15:17 39.551680 -119.769279 180 5472ft 141kts
02-Nov-20 15:18 39.518876 -119.769198 180 4605ft 137kts
02-Nov-20 15:19 39.497428 -119.769687 242 4423ft 13kts
02-Nov-20 15:20 39.498937 -119.771536 11 4423ft 11kts
02-Nov-20 15:21 39.503205 -119.771576 354 4423ft 19kts
02-Nov-20 15:22 39.504464 -119.772806 352 4423ft 0kts

Navigation Log

Ident Type
Flight plan parsing failed, navigation log unavailable